sensor_id;sensor_type;location;lat;lon;timestamp;pressure;altitude;pressure_sealevel;temperature;humidity
78121;BME280;67585;44.802;10.332;2023-11-21T00:02:11;100464.59;;;11.44;80.97
78121;BME280;67585;44.802;10.332;2023-11-21T00:04:37;100427.59;;;11.19;81.83
78121;BME280;67585;44.802;10.332;2023-11-21T00:07:03;100418.69;;;10.98;81.33
78121;BME280;67585;44.802;10.332;2023-11-21T00:09:28;100466.41;;;11.02;81.90
78121;BME280;67585;44.802;10.332;2023-11-21T00:11:53;100472.09;;;11.16;82.04
78121;BME280;67585;44.802;10.332;2023-11-21T00:14:19;100463.97;;;11.06;82.52
78121;BME280;67585;44.802;10.332;2023-11-21T00:16:44;100448.66;;;11.17;82.59
78121;BME280;67585;44.802;10.332;2023-11-21T00:19:11;100431.63;;;11.16;81.95
78121;BME280;67585;44.802;10.332;2023-11-21T00:21:36;100431.09;;;11.04;82.28
78121;BME280;67585;44.802;10.332;2023-11-21T00:24:01;100419.81;;;11.17;82.47
78121;BME280;67585;44.802;10.332;2023-11-21T00:26:27;100388.19;;;10.92;82.73
78121;BME280;67585;44.802;10.332;2023-11-21T00:28:53;100389.59;;;11.10;82.59
78121;BME280;67585;44.802;10.332;2023-11-21T00:31:18;100371.81;;;11.19;82.17
78121;BME280;67585;44.802;10.332;2023-11-21T00:33:43;100392.53;;;10.98;83.30
78121;BME280;67585;44.802;10.332;2023-11-21T00:36:09;100386.59;;;10.86;82.97
78121;BME280;67585;44.802;10.332;2023-11-21T00:38:37;100399.28;;;11.16;83.08
78121;BME280;67585;44.802;10.332;2023-11-21T00:41:05;100361.84;;;11.15;82.01
78121;BME280;67585;44.802;10.332;2023-11-21T00:43:31;100413.56;;;11.11;82.13
78121;BME280;67585;44.802;10.332;2023-11-21T00:45:58;100404.72;;;11.26;81.81
78121;BME280;67585;44.802;10.332;2023-11-21T00:48:23;100400.38;;;11.36;81.38
78121;BME280;67585;44.802;10.332;2023-11-21T00:50:49;100390.41;;;11.10;81.42
78121;BME280;67585;44.802;10.332;2023-11-21T00:53:15;100417.09;;;11.17;81.52
78121;BME280;67585;44.802;10.332;2023-11-21T00:55:40;100425.75;;;11.29;81.82
78121;BME280;67585;44.802;10.332;2023-11-21T00:58:06;100421.16;;;11.30;81.70
78121;BME280;67585;44.802;10.332;2023-11-21T01:00:33;100408.22;;;11.37;81.24
78121;BME280;67585;44.802;10.332;2023-11-21T01:02:58;100405.78;;;11.56;80.91
78121;BME280;67585;44.802;10.332;2023-11-21T01:05:24;100407.13;;;11.38;80.50
78121;BME280;67585;44.802;10.332;2023-11-21T01:07:49;100404.44;;;11.23;80.15
78121;BME280;67585;44.802;10.332;2023-11-21T01:10:15;100392.59;;;11.24;80.17
78121;BME280;67585;44.802;10.332;2023-11-21T01:12:42;100401.97;;;11.06;81.31
78121;BME280;67585;44.802;10.332;2023-11-21T01:15:08;100417.38;;;11.31;80.63
78121;BME280;67585;44.802;10.332;2023-11-21T01:17:33;100426.00;;;11.28;80.33
78121;BME280;67585;44.802;10.332;2023-11-21T01:20:02;100424.41;;;11.32;79.72
78121;BME280;67585;44.802;10.332;2023-11-21T01:22:28;100426.53;;;11.40;79.27
78121;BME280;67585;44.802;10.332;2023-11-21T01:24:54;100425.19;;;11.32;79.68
78121;BME280;67585;44.802;10.332;2023-11-21T01:27:20;100404.69;;;11.06;80.63
78121;BME280;67585;44.802;10.332;2023-11-21T01:29:45;100411.72;;;11.43;79.10
78121;BME280;67585;44.802;10.332;2023-11-21T01:32:11;100403.88;;;11.21;79.42
78121;BME280;67585;44.802;10.332;2023-11-21T01:34:36;100401.94;;;10.85;80.00
78121;BME280;67585;44.802;10.332;2023-11-21T01:37:02;100416.00;;;11.08;80.14
78121;BME280;67585;44.802;10.332;2023-11-21T01:39:30;100428.69;;;11.33;79.30
78121;BME280;67585;44.802;10.332;2023-11-21T01:41:56;100426.81;;;11.23;79.21
78121;BME280;67585;44.802;10.332;2023-11-21T01:44:24;100423.81;;;11.04;79.62
78121;BME280;67585;44.802;10.332;2023-11-21T01:46:50;100410.28;;;10.79;79.89
78121;BME280;67585;44.802;10.332;2023-11-21T01:49:16;100407.38;;;11.06;79.15
78121;BME280;67585;44.802;10.332;2023-11-21T01:51:44;100407.41;;;11.31;78.61
78121;BME280;67585;44.802;10.332;2023-11-21T01:54:11;100393.91;;;11.11;78.24
78121;BME280;67585;44.802;10.332;2023-11-21T01:56:37;100408.22;;;11.22;78.22
78121;BME280;67585;44.802;10.332;2023-11-21T01:59:02;100408.47;;;11.15;78.86
78121;BME280;67585;44.802;10.332;2023-11-21T02:01:28;100409.56;;;11.34;77.69
78121;BME280;67585;44.802;10.332;2023-11-21T02:03:53;100410.38;;;11.20;77.21
78121;BME280;67585;44.802;10.332;2023-11-21T02:06:19;100400.09;;;11.11;77.86
78121;BME280;67585;44.802;10.332;2023-11-21T02:08:44;100403.38;;;11.29;77.34
78121;BME280;67585;44.802;10.332;2023-11-21T02:11:10;100414.94;;;11.24;76.67
78121;BME280;67585;44.802;10.332;2023-11-21T02:13:38;100392.84;;;11.17;76.51
78121;BME280;67585;44.802;10.332;2023-11-21T02:16:04;100381.50;;;11.00;77.83
78121;BME280;67585;44.802;10.332;2023-11-21T02:18:31;100401.72;;;11.28;77.55
78121;BME280;67585;44.802;10.332;2023-11-21T02:20:56;100401.22;;;11.36;76.55
78121;BME280;67585;44.802;10.332;2023-11-21T02:23:21;100404.41;;;10.97;77.11
78121;BME280;67585;44.802;10.332;2023-11-21T02:25:48;100408.72;;;10.98;78.05
78121;BME280;67585;44.802;10.332;2023-11-21T02:28:13;100370.19;;;10.98;76.87
78121;BME280;67585;44.802;10.332;2023-11-21T02:30:40;100395.53;;;11.27;76.93
78121;BME280;67585;44.802;10.332;2023-11-21T02:33:06;100392.84;;;11.32;76.93
78121;BME280;67585;44.802;10.332;2023-11-21T02:35:32;100390.16;;;11.27;76.86
78121;BME280;67585;44.802;10.332;2023-11-21T02:37:57;100375.31;;;11.20;76.57
78121;BME280;67585;44.802;10.332;2023-11-21T02:40:23;100385.56;;;11.28;77.27
78121;BME280;67585;44.802;10.332;2023-11-21T02:42:50;100382.34;;;11.41;76.00
78121;BME280;67585;44.802;10.332;2023-11-21T02:45:19;100368.56;;;11.27;76.08
78121;BME280;67585;44.802;10.332;2023-11-21T02:47:46;100351.06;;;11.15;76.07
78121;BME280;67585;44.802;10.332;2023-11-21T02:50:12;100363.44;;;11.16;76.22
78121;BME280;67585;44.802;10.332;2023-11-21T02:52:38;100353.19;;;11.02;76.55
78121;BME280;67585;44.802;10.332;2023-11-21T02:55:05;100352.91;;;11.09;76.07
78121;BME280;67585;44.802;10.332;2023-11-21T02:57:32;100372.28;;;10.75;77.25
78121;BME280;67585;44.802;10.332;2023-11-21T02:59:57;100376.84;;;10.80;77.41
78121;BME280;67585;44.802;10.332;2023-11-21T03:02:23;100352.91;;;10.73;77.91
78121;BME280;67585;44.802;10.332;2023-11-21T03:04:48;100339.66;;;10.51;77.68
78121;BME280;67585;44.802;10.332;2023-11-21T03:07:15;100357.75;;;10.76;78.19
78121;BME280;67585;44.802;10.332;2023-11-21T03:09:41;100365.81;;;10.76;78.21
78121;BME280;67585;44.802;10.332;2023-11-21T03:12:06;100357.19;;;10.79;77.75
78121;BME280;67585;44.802;10.332;2023-11-21T03:14:32;100328.91;;;10.92;77.14
78121;BME280;67585;44.802;10.332;2023-11-21T03:16:57;100333.78;;;11.00;76.94
78121;BME280;67585;44.802;10.332;2023-11-21T03:19:22;100332.72;;;11.22;77.01
78121;BME280;67585;44.802;10.332;2023-11-21T03:21:48;100338.66;;;11.24;76.28
78121;BME280;67585;44.802;10.332;2023-11-21T03:24:14;100320.84;;;11.33;75.67
78121;BME280;67585;44.802;10.332;2023-11-21T03:26:44;100344.03;;;10.98;76.51
78121;BME280;67585;44.802;10.332;2023-11-21T03:29:10;100331.91;;;11.01;76.29
78121;BME280;67585;44.802;10.332;2023-11-21T03:31:35;100345.91;;;11.08;76.13
78121;BME280;67585;44.802;10.332;2023-11-21T03:34:01;100327.84;;;11.08;76.90
78121;BME280;67585;44.802;10.332;2023-11-21T03:36:26;100330.78;;;10.66;77.11
78121;BME280;67585;44.802;10.332;2023-11-21T03:38:52;100344.53;;;10.80;77.83
78121;BME280;67585;44.802;10.332;2023-11-21T03:41:17;100338.34;;;10.79;78.53
78121;BME280;67585;44.802;10.332;2023-11-21T03:43:43;100337.53;;;10.79;78.70
78121;BME280;67585;44.802;10.332;2023-11-21T03:46:09;100334.81;;;10.63;79.58
78121;BME280;67585;44.802;10.332;2023-11-21T03:48:35;100325.41;;;10.61;79.04
78121;BME280;67585;44.802;10.332;2023-11-21T03:51:00;100333.25;;;10.93;79.37
78121;BME280;67585;44.802;10.332;2023-11-21T03:53:26;100327.56;;;10.95;78.41
78121;BME280;67585;44.802;10.332;2023-11-21T03:55:51;100337.78;;;10.72;78.74
78121;BME280;67585;44.802;10.332;2023-11-21T03:58:17;100331.59;;;10.92;78.95
78121;BME280;67585;44.802;10.332;2023-11-21T04:00:42;100341.63;;;11.07;79.22
78121;BME280;67585;44.802;10.332;2023-11-21T04:03:07;100324.06;;;10.94;78.71
78121;BME280;67585;44.802;10.332;2023-11-21T04:05:32;100336.22;;;11.12;79.24
78121;BME280;67585;44.802;10.332;2023-11-21T04:07:58;100335.69;;;11.05;78.21
78121;BME280;67585;44.802;10.332;2023-11-21T04:10:23;100330.56;;;11.03;79.50
78121;BME280;67585;44.802;10.332;2023-11-21T04:12:49;100334.28;;;10.66;80.62
78121;BME280;67585;44.802;10.332;2023-11-21T04:15:14;100330.25;;;10.89;79.74
78121;BME280;67585;44.802;10.332;2023-11-21T04:17:41;100325.41;;;10.76;80.34
78121;BME280;67585;44.802;10.332;2023-11-21T04:20:07;100345.63;;;10.84;80.31
78121;BME280;67585;44.802;10.332;2023-11-21T04:22:39;100355.34;;;11.10;80.19
78121;BME280;67585;44.802;10.332;2023-11-21T04:25:10;100344.03;;;10.93;80.02
78121;BME280;67585;44.802;10.332;2023-11-21T04:27:36;100356.69;;;11.13;79.87
78121;BME280;67585;44.802;10.332;2023-11-21T04:30:02;100311.13;;;10.86;80.41
78121;BME280;67585;44.802;10.332;2023-11-21T04:32:27;100360.75;;;11.21;79.62
78121;BME280;67585;44.802;10.332;2023-11-21T04:34:52;100325.97;;;10.83;80.32
78121;BME280;67585;44.802;10.332;2023-11-21T04:37:18;100332.16;;;11.04;80.78
78121;BME280;67585;44.802;10.332;2023-11-21T04:39:43;100333.78;;;11.21;79.76
78121;BME280;67585;44.802;10.332;2023-11-21T04:42:08;100329.75;;;11.08;79.56
78121;BME280;67585;44.802;10.332;2023-11-21T04:44:34;100344.84;;;11.24;79.09
78121;BME280;67585;44.802;10.332;2023-11-21T04:46:59;100349.16;;;11.15;79.06
78121;BME280;67585;44.802;10.332;2023-11-21T04:49:25;100335.13;;;11.03;79.82
78121;BME280;67585;44.802;10.332;2023-11-21T04:51:50;100333.78;;;11.21;79.04
78121;BME280;67585;44.802;10.332;2023-11-21T04:54:15;100315.72;;;11.06;78.87
78121;BME280;67585;44.802;10.332;2023-11-21T04:56:41;100359.41;;;11.18;79.05
78121;BME280;67585;44.802;10.332;2023-11-21T04:59:07;100321.13;;;11.06;79.07
78121;BME280;67585;44.802;10.332;2023-11-21T05:01:32;100341.34;;;11.03;79.77
78121;BME280;67585;44.802;10.332;2023-11-21T05:03:57;100356.97;;;11.06;80.40
78121;BME280;67585;44.802;10.332;2023-11-21T05:06:23;100341.06;;;11.05;80.63
78121;BME280;67585;44.802;10.332;2023-11-21T05:08:49;100334.34;;;11.18;80.04
78121;BME280;67585;44.802;10.332;2023-11-21T05:11:27;100353.19;;;11.23;80.30
78121;BME280;67585;44.802;10.332;2023-11-21T05:13:54;100328.94;;;11.02;80.24
78121;BME280;67585;44.802;10.332;2023-11-21T05:16:21;100338.09;;;11.11;79.99
78121;BME280;67585;44.802;10.332;2023-11-21T05:18:47;100345.91;;;11.18;80.93
78121;BME280;67585;44.802;10.332;2023-11-21T05:21:12;100340.25;;;11.04;80.57
78121;BME280;67585;44.802;10.332;2023-11-21T05:23:37;100347.56;;;11.19;80.60
78121;BME280;67585;44.802;10.332;2023-11-21T05:26:03;100349.72;;;11.12;80.96
78121;BME280;67585;44.802;10.332;2023-11-21T05:28:29;100356.69;;;11.08;80.50
78121;BME280;67585;44.802;10.332;2023-11-21T05:30:54;100355.34;;;11.10;81.05
78121;BME280;67585;44.802;10.332;2023-11-21T05:33:20;100345.91;;;10.93;80.97
78121;BME280;67585;44.802;10.332;2023-11-21T05:35:45;100352.91;;;11.04;81.72
78121;BME280;67585;44.802;10.332;2023-11-21T05:38:11;100347.78;;;10.87;81.57
78121;BME280;67585;44.802;10.332;2023-11-21T05:40:36;100340.53;;;10.93;81.81
78121;BME280;67585;44.802;10.332;2023-11-21T05:43:02;100334.31;;;10.92;81.91
78121;BME280;67585;44.802;10.332;2023-11-21T05:45:27;100318.41;;;10.90;81.86
78121;BME280;67585;44.802;10.332;2023-11-21T05:47:54;100338.38;;;11.10;81.39
78121;BME280;67585;44.802;10.332;2023-11-21T05:50:20;100344.03;;;10.98;81.37
78121;BME280;67585;44.802;10.332;2023-11-21T05:52:47;100358.84;;;11.06;81.26
78121;BME280;67585;44.802;10.332;2023-11-21T05:55:13;100359.69;;;11.17;81.14
78121;BME280;67585;44.802;10.332;2023-11-21T05:57:40;100364.78;;;11.03;81.27
78121;BME280;67585;44.802;10.332;2023-11-21T06:00:07;100355.91;;;11.07;81.49
78121;BME280;67585;44.802;10.332;2023-11-21T06:02:40;100348.63;;;11.13;80.87
78121;BME280;67585;44.802;10.332;2023-11-21T06:05:07;100353.19;;;11.07;80.38
78121;BME280;67585;44.802;10.332;2023-11-21T06:07:34;100350.75;;;10.85;81.63
78121;BME280;67585;44.802;10.332;2023-11-21T06:10:01;100354.00;;;11.18;80.64
78121;BME280;67585;44.802;10.332;2023-11-21T06:12:28;100351.56;;;11.11;80.64
78121;BME280;67585;44.802;10.332;2023-11-21T06:14:53;100348.31;;;10.99;80.87
78121;BME280;67585;44.802;10.332;2023-11-21T06:17:19;100360.75;;;11.05;80.63
78121;BME280;67585;44.802;10.332;2023-11-21T06:19:44;100329.47;;;10.89;80.80
78121;BME280;67585;44.802;10.332;2023-11-21T06:22:11;100354.28;;;11.17;80.66
78121;BME280;67585;44.802;10.332;2023-11-21T06:24:36;100349.69;;;11.02;80.40
78121;BME280;67585;44.802;10.332;2023-11-21T06:27:04;100341.59;;;10.91;81.06
78121;BME280;67585;44.802;10.332;2023-11-21T06:29:30;100344.03;;;10.93;81.89
78121;BME280;67585;44.802;10.332;2023-11-21T06:31:55;100342.69;;;10.96;81.16
78121;BME280;67585;44.802;10.332;2023-11-21T06:34:21;100325.41;;;10.97;81.07
78121;BME280;67585;44.802;10.332;2023-11-21T06:36:47;100340.25;;;10.99;80.96
78121;BME280;67585;44.802;10.332;2023-11-21T06:39:12;100332.16;;;10.99;80.80
78121;BME280;67585;44.802;10.332;2023-11-21T06:41:40;100326.00;;;13.14;77.17
78121;BME280;67585;44.802;10.332;2023-11-21T06:44:05;100325.94;;;12.85;74.30
78121;BME280;67585;44.802;10.332;2023-11-21T06:46:31;100319.53;;;13.10;74.13
78121;BME280;67585;44.802;10.332;2023-11-21T06:48:56;100313.78;;;11.68;76.45
78121;BME280;67585;44.802;10.332;2023-11-21T06:51:22;100304.66;;;11.33;77.88
78121;BME280;67585;44.802;10.332;2023-11-21T06:53:47;100323.00;;;11.10;79.62
78121;BME280;67585;44.802;10.332;2023-11-21T06:56:18;100323.28;;;11.34;79.60
78121;BME280;67585;44.802;10.332;2023-11-21T06:58:45;100306.28;;;11.29;80.13
78121;BME280;67585;44.802;10.332;2023-11-21T07:01:11;100328.66;;;11.45;80.17
78121;BME280;67585;44.802;10.332;2023-11-21T07:03:37;100310.09;;;10.97;80.39
78121;BME280;67585;44.802;10.332;2023-11-21T07:06:03;100330.28;;;11.05;80.58
78121;BME280;67585;44.802;10.332;2023-11-21T07:08:29;100327.06;;;11.03;81.37
78121;BME280;67585;44.802;10.332;2023-11-21T07:10:54;100321.13;;;11.01;82.56
78121;BME280;67585;44.802;10.332;2023-11-21T07:13:19;100312.19;;;10.80;81.81
78121;BME280;67585;44.802;10.332;2023-11-21T07:15:46;100310.06;;;10.82;82.06
78121;BME280;67585;44.802;10.332;2023-11-21T07:18:13;100294.13;;;10.70;83.00
78121;BME280;67585;44.802;10.332;2023-11-21T07:20:38;100323.28;;;10.88;82.95
78121;BME280;67585;44.802;10.332;2023-11-21T07:23:04;100296.88;;;10.80;83.10
78121;BME280;67585;44.802;10.332;2023-11-21T07:25:29;100303.59;;;10.83;83.45
78121;BME280;67585;44.802;10.332;2023-11-21T07:27:54;100291.97;;;10.62;84.77
78121;BME280;67585;44.802;10.332;2023-11-21T07:30:20;100294.66;;;10.57;84.70
78121;BME280;67585;44.802;10.332;2023-11-21T07:32:48;100295.72;;;10.51;85.66
78121;BME280;67585;44.802;10.332;2023-11-21T07:35:13;100314.34;;;10.67;85.97
78121;BME280;67585;44.802;10.332;2023-11-21T07:37:39;100316.78;;;10.84;86.13
78121;BME280;67585;44.802;10.332;2023-11-21T07:40:05;100328.91;;;10.72;86.13
78121;BME280;67585;44.802;10.332;2023-11-21T07:42:31;100314.63;;;10.66;85.72
78121;BME280;67585;44.802;10.332;2023-11-21T07:44:56;100327.56;;;10.74;85.73
78121;BME280;67585;44.802;10.332;2023-11-21T07:47:22;100322.19;;;10.84;85.41
78121;BME280;67585;44.802;10.332;2023-11-21T07:49:47;100301.16;;;10.91;84.07
78121;BME280;67585;44.802;10.332;2023-11-21T07:52:13;100323.56;;;11.02;82.59
78121;BME280;67585;44.802;10.332;2023-11-21T07:54:41;100317.34;;;10.97;82.83
78121;BME280;67585;44.802;10.332;2023-11-21T07:57:07;100317.88;;;10.99;82.65
78121;BME280;67585;44.802;10.332;2023-11-21T07:59:32;100315.47;;;10.97;81.80
78121;BME280;67585;44.802;10.332;2023-11-21T08:01:58;100311.13;;;10.96;81.64
78121;BME280;67585;44.802;10.332;2023-11-21T08:04:23;100328.69;;;11.14;81.09
78121;BME280;67585;44.802;10.332;2023-11-21T08:06:48;100327.84;;;11.13;81.21
78121;BME280;67585;44.802;10.332;2023-11-21T08:09:14;100328.41;;;11.05;81.34
78121;BME280;67585;44.802;10.332;2023-11-21T08:11:40;100329.75;;;11.13;80.74
78121;BME280;67585;44.802;10.332;2023-11-21T08:14:06;100310.06;;;11.12;81.04
78121;BME280;67585;44.802;10.332;2023-11-21T08:16:31;100311.94;;;11.02;81.51
78121;BME280;67585;44.802;10.332;2023-11-21T08:18:57;100327.31;;;11.32;80.96
78121;BME280;67585;44.802;10.332;2023-11-21T08:21:22;100336.47;;;11.16;81.45
78121;BME280;67585;44.802;10.332;2023-11-21T08:23:52;100328.38;;;11.31;81.65
78121;BME280;67585;44.802;10.332;2023-11-21T08:26:21;100326.50;;;11.16;81.59
78121;BME280;67585;44.802;10.332;2023-11-21T08:28:47;100311.69;;;11.08;82.11
78121;BME280;67585;44.802;10.332;2023-11-21T08:31:12;100322.22;;;11.05;82.73
78121;BME280;67585;44.802;10.332;2023-11-21T08:33:38;100333.25;;;11.08;83.47
78121;BME280;67585;44.802;10.332;2023-11-21T08:36:07;100312.78;;;10.97;83.44
78121;BME280;67585;44.802;10.332;2023-11-21T08:38:33;100326.50;;;11.06;83.14
78121;BME280;67585;44.802;10.332;2023-11-21T08:41:04;100339.72;;;11.28;82.37
78121;BME280;67585;44.802;10.332;2023-11-21T08:43:33;100334.06;;;11.14;83.15
78121;BME280;67585;44.802;10.332;2023-11-21T08:45:59;100333.25;;;11.13;82.96
78121;BME280;67585;44.802;10.332;2023-11-21T08:48:24;100336.22;;;11.17;82.42
78121;BME280;67585;44.802;10.332;2023-11-21T08:50:50;100339.19;;;11.21;82.04
78121;BME280;67585;44.802;10.332;2023-11-21T08:53:16;100321.13;;;11.16;82.46
78121;BME280;67585;44.802;10.332;2023-11-21T08:55:42;100321.94;;;11.22;82.44
78121;BME280;67585;44.802;10.332;2023-11-21T08:58:09;100318.97;;;11.08;81.67
78121;BME280;67585;44.802;10.332;2023-11-21T09:00:34;100334.59;;;11.16;81.97
78121;BME280;67585;44.802;10.332;2023-11-21T09:03:01;100344.03;;;11.03;82.02
78121;BME280;67585;44.802;10.332;2023-11-21T09:05:27;100310.84;;;10.77;82.57
78121;BME280;67585;44.802;10.332;2023-11-21T09:07:52;100342.16;;;11.14;82.68
78121;BME280;67585;44.802;10.332;2023-11-21T09:10:18;100327.59;;;11.10;82.73
78121;BME280;67585;44.802;10.332;2023-11-21T09:12:44;100344.03;;;11.13;82.87
78121;BME280;67585;44.802;10.332;2023-11-21T09:15:10;100346.19;;;11.11;83.16
78121;BME280;67585;44.802;10.332;2023-11-21T09:17:36;100346.47;;;11.15;84.07
78121;BME280;67585;44.802;10.332;2023-11-21T09:20:03;100342.13;;;10.99;83.96
78121;BME280;67585;44.802;10.332;2023-11-21T09:22:31;100307.34;;;10.72;83.70
78121;BME280;67585;44.802;10.332;2023-11-21T09:24:57;100327.31;;;10.76;84.15
78121;BME280;67585;44.802;10.332;2023-11-21T09:27:23;100336.75;;;10.83;84.26
78121;BME280;67585;44.802;10.332;2023-11-21T09:29:49;100339.97;;;10.96;84.37
78121;BME280;67585;44.802;10.332;2023-11-21T09:32:14;100330.81;;;10.86;84.18
78121;BME280;67585;44.802;10.332;2023-11-21T09:34:43;100322.72;;;10.97;83.31
78121;BME280;67585;44.802;10.332;2023-11-21T09:37:09;100335.94;;;11.08;84.01
78121;BME280;67585;44.802;10.332;2023-11-21T09:39:35;100326.25;;;11.23;83.26
78121;BME280;67585;44.802;10.332;2023-11-21T09:42:40;100289.84;;;10.95;83.29
78121;BME280;67585;44.802;10.332;2023-11-21T09:45:18;100314.63;;;10.97;83.04
78121;BME280;67585;44.802;10.332;2023-11-21T09:47:46;100313.03;;;11.16;83.94
78121;BME280;67585;44.802;10.332;2023-11-21T09:50:15;100285.81;;;10.72;83.60
78121;BME280;67585;44.802;10.332;2023-11-21T09:53:11;100320.88;;;11.02;83.73
78121;BME280;67585;44.802;10.332;2023-11-21T09:55:42;100334.06;;;11.09;83.66
78121;BME280;67585;44.802;10.332;2023-11-21T09:58:08;100312.50;;;10.94;83.51
78121;BME280;67585;44.802;10.332;2023-11-21T10:00:44;100302.00;;;11.02;83.38
78121;BME280;67585;44.802;10.332;2023-11-21T10:03:10;100307.13;;;11.19;83.05
78121;BME280;67585;44.802;10.332;2023-11-21T10:05:36;100267.75;;;10.82;83.53
78121;BME280;67585;44.802;10.332;2023-11-21T10:08:04;100287.41;;;11.19;82.82
78121;BME280;67585;44.802;10.332;2023-11-21T10:10:32;100294.97;;;11.27;82.91
78121;BME280;67585;44.802;10.332;2023-11-21T10:13:01;100275.00;;;11.23;82.24
78121;BME280;67585;44.802;10.332;2023-11-21T10:15:28;100270.16;;;11.30;81.91
78121;BME280;67585;44.802;10.332;2023-11-21T10:17:55;100272.53;;;11.52;81.25
78121;BME280;67585;44.802;10.332;2023-11-21T10:20:20;100248.59;;;11.30;81.37
78121;BME280;67585;44.802;10.332;2023-11-21T10:22:47;100273.34;;;11.63;80.72
78121;BME280;67585;44.802;10.332;2023-11-21T10:25:13;100248.53;;;11.45;80.25
78121;BME280;67585;44.802;10.332;2023-11-21T10:27:41;100233.50;;;11.29;80.13
78121;BME280;67585;44.802;10.332;2023-11-21T10:30:07;100258.28;;;11.41;80.15
78121;BME280;67585;44.802;10.332;2023-11-21T10:32:33;100249.91;;;11.38;81.12
78121;BME280;67585;44.802;10.332;2023-11-21T10:34:59;100259.00;;;11.72;81.06
78121;BME280;67585;44.802;10.332;2023-11-21T10:37:32;100234.50;;;11.53;80.67
78121;BME280;67585;44.802;10.332;2023-11-21T10:39:58;100248.78;;;11.54;81.07
78121;BME280;67585;44.802;10.332;2023-11-21T10:42:24;100249.91;;;11.38;80.56
78121;BME280;67585;44.802;10.332;2023-11-21T10:44:49;100245.91;;;11.25;81.17
78121;BME280;67585;44.802;10.332;2023-11-21T10:47:16;100253.72;;;11.26;80.72
78121;BME280;67585;44.802;10.332;2023-11-21T10:49:44;100250.13;;;11.57;81.95
78121;BME280;67585;44.802;10.332;2023-11-21T10:52:13;100250.41;;;11.50;80.87
78121;BME280;67585;44.802;10.332;2023-11-21T10:54:45;100229.41;;;11.42;81.29
78121;BME280;67585;44.802;10.332;2023-11-21T10:57:12;100241.44;;;11.70;80.49
78121;BME280;67585;44.802;10.332;2023-11-21T10:59:41;100227.41;;;11.73;80.59
78121;BME280;67585;44.802;10.332;2023-11-21T11:02:21;100233.03;;;11.82;80.23
78121;BME280;67585;44.802;10.332;2023-11-21T11:04:48;100235.75;;;11.76;80.14
78121;BME280;67585;44.802;10.332;2023-11-21T11:07:14;100248.44;;;11.81;79.90
78121;BME280;67585;44.802;10.332;2023-11-21T11:09:44;100258.47;;;11.65;79.30
78121;BME280;67585;44.802;10.332;2023-11-21T11:12:11;100241.81;;;11.43;80.41
78121;BME280;67585;44.802;10.332;2023-11-21T11:14:40;100256.28;;;11.67;79.94
78121;BME280;67585;44.802;10.332;2023-11-21T11:17:07;100246.34;;;11.63;80.25
78121;BME280;67585;44.802;10.332;2023-11-21T11:19:34;100247.19;;;11.53;79.73
78121;BME280;67585;44.802;10.332;2023-11-21T11:27:40;100246.53;;;11.82;79.22
78121;BME280;67585;44.802;10.332;2023-11-21T11:38:34;100238.44;;;11.87;78.91
78121;BME280;67585;44.802;10.332;2023-11-21T11:41:05;100255.31;;;12.13;79.23
78121;BME280;67585;44.802;10.332;2023-11-21T11:43:31;100255.38;;;12.03;78.81
78121;BME280;67585;44.802;10.332;2023-11-21T11:46:09;100263.53;;;11.77;78.56
78121;BME280;67585;44.802;10.332;2023-11-21T11:48:39;100267.81;;;11.98;78.81
78121;BME280;67585;44.802;10.332;2023-11-21T11:51:14;100258.00;;;12.18;78.89
78121;BME280;67585;44.802;10.332;2023-11-21T11:53:44;100245.88;;;12.10;78.29
78121;BME280;67585;44.802;10.332;2023-11-21T11:56:26;100251.75;;;12.23;78.41
78121;BME280;67585;44.802;10.332;2023-11-21T11:58:56;100246.34;;;12.28;77.52
78121;BME280;67585;44.802;10.332;2023-11-21T12:01:24;100234.13;;;11.91;77.64
78121;BME280;67585;44.802;10.332;2023-11-21T12:06:42;100250.66;;;12.29;78.02
78121;BME280;67585;44.802;10.332;2023-11-21T12:09:18;100243.50;;;12.09;77.52
78121;BME280;67585;44.802;10.332;2023-11-21T12:11:43;100255.88;;;12.15;77.72
78121;BME280;67585;44.802;10.332;2023-11-21T12:14:09;100258.00;;;12.18;77.50
78121;BME280;67585;44.802;10.332;2023-11-21T12:16:35;100248.84;;;12.14;77.65
78121;BME280;67585;44.802;10.332;2023-11-21T12:19:00;100259.91;;;12.17;77.91
78121;BME280;67585;44.802;10.332;2023-11-21T12:21:26;100254.41;;;12.33;78.34
78121;BME280;67585;44.802;10.332;2023-11-21T12:23:52;100245.97;;;11.95;78.04
78121;BME280;67585;44.802;10.332;2023-11-21T12:26:17;100245.84;;;12.21;78.42
78121;BME280;67585;44.802;10.332;2023-11-21T12:28:43;100213.28;;;12.02;77.93
78121;BME280;67585;44.802;10.332;2023-11-21T12:31:08;100239.03;;;12.33;78.06
78121;BME280;67585;44.802;10.332;2023-11-21T12:33:34;100237.19;;;12.24;77.39
78121;BME280;67585;44.802;10.332;2023-11-21T12:36:00;100235.84;;;12.16;75.94
78121;BME280;67585;44.802;10.332;2023-11-21T12:38:33;100240.94;;;12.28;74.85
78121;BME280;67585;44.802;10.332;2023-11-21T12:40:59;100230.47;;;12.21;74.42
78121;BME280;67585;44.802;10.332;2023-11-21T12:43:25;100234.56;;;12.08;74.17
78121;BME280;67585;44.802;10.332;2023-11-21T12:45:50;100240.53;;;12.05;74.33
78121;BME280;67585;44.802;10.332;2023-11-21T12:48:18;100215.50;;;11.89;74.67
78121;BME280;67585;44.802;10.332;2023-11-21T12:50:49;100222.34;;;12.16;73.70
78121;BME280;67585;44.802;10.332;2023-11-21T12:53:18;100215.34;;;12.15;73.17
78121;BME280;67585;44.802;10.332;2023-11-21T12:55:44;100219.44;;;12.12;73.36